sensor_id;sensor_type;location;lat;lon;timestamp;temperature;humidity
58933;DHT22;44716;51.022;6.818;2023-12-28T00:01:50;21.80;59.80
58933;DHT22;44716;51.022;6.818;2023-12-28T00:04:16;21.70;59.90
58933;DHT22;44716;51.022;6.818;2023-12-28T00:06:41;21.70;59.90
58933;DHT22;44716;51.022;6.818;2023-12-28T00:09:07;21.70;59.80
58933;DHT22;44716;51.022;6.818;2023-12-28T00:11:33;21.80;59.80
58933;DHT22;44716;51.022;6.818;2023-12-28T00:13:58;21.70;59.80
58933;DHT22;44716;51.022;6.818;2023-12-28T00:16:24;21.70;59.90
58933;DHT22;44716;51.022;6.818;2023-12-28T00:18:50;21.70;59.80
58933;DHT22;44716;51.022;6.818;2023-12-28T00:21:15;21.70;59.90
58933;DHT22;44716;51.022;6.818;2023-12-28T00:23:41;21.60;59.80
58933;DHT22;44716;51.022;6.818;2023-12-28T00:26:06;21.70;59.80
58933;DHT22;44716;51.022;6.818;2023-12-28T00:28:32;21.70;59.80
58933;DHT22;44716;51.022;6.818;2023-12-28T00:30:57;21.60;59.80
58933;DHT22;44716;51.022;6.818;2023-12-28T00:33:23;21.70;59.80
58933;DHT22;44716;51.022;6.818;2023-12-28T00:35:48;21.60;59.80
58933;DHT22;44716;51.022;6.818;2023-12-28T00:38:14;21.60;59.80
58933;DHT22;44716;51.022;6.818;2023-12-28T00:40:39;21.60;59.90
58933;DHT22;44716;51.022;6.818;2023-12-28T00:43:05;21.60;59.90
58933;DHT22;44716;51.022;6.818;2023-12-28T00:45:31;21.60;59.80
58933;DHT22;44716;51.022;6.818;2023-12-28T00:47:56;21.50;59.80
58933;DHT22;44716;51.022;6.818;2023-12-28T00:50:22;21.50;60.00
58933;DHT22;44716;51.022;6.818;2023-12-28T00:52:47;21.50;60.00
58933;DHT22;44716;51.022;6.818;2023-12-28T00:55:13;21.50;60.00
58933;DHT22;44716;51.022;6.818;2023-12-28T00:57:38;21.50;60.10
58933;DHT22;44716;51.022;6.818;2023-12-28T01:00:04;21.50;60.10
58933;DHT22;44716;51.022;6.818;2023-12-28T01:02:30;21.50;60.10
58933;DHT22;44716;51.022;6.818;2023-12-28T01:04:56;21.50;60.20
58933;DHT22;44716;51.022;6.818;2023-12-28T01:07:21;21.40;60.10
58933;DHT22;44716;51.022;6.818;2023-12-28T01:09:47;21.50;60.20
58933;DHT22;44716;51.022;6.818;2023-12-28T01:12:12;21.40;60.10
58933;DHT22;44716;51.022;6.818;2023-12-28T01:14:38;21.50;60.30
58933;DHT22;44716;51.022;6.818;2023-12-28T01:17:03;21.40;60.20
58933;DHT22;44716;51.022;6.818;2023-12-28T01:19:29;21.40;60.20
58933;DHT22;44716;51.022;6.818;2023-12-28T01:21:55;21.40;60.30
58933;DHT22;44716;51.022;6.818;2023-12-28T01:24:21;21.30;60.40
58933;DHT22;44716;51.022;6.818;2023-12-28T01:26:46;21.30;60.30
58933;DHT22;44716;51.022;6.818;2023-12-28T01:29:12;21.40;60.40
58933;DHT22;44716;51.022;6.818;2023-12-28T01:31:37;21.40;60.30
58933;DHT22;44716;51.022;6.818;2023-12-28T01:34:04;21.30;60.30
58933;DHT22;44716;51.022;6.818;2023-12-28T01:36:30;21.30;60.30
58933;DHT22;44716;51.022;6.818;2023-12-28T01:38:55;21.30;60.40
58933;DHT22;44716;51.022;6.818;2023-12-28T01:41:21;21.30;60.50
58933;DHT22;44716;51.022;6.818;2023-12-28T01:43:47;21.30;60.50
58933;DHT22;44716;51.022;6.818;2023-12-28T01:46:16;21.30;60.50
58933;DHT22;44716;51.022;6.818;2023-12-28T01:48:42;21.30;60.60
58933;DHT22;44716;51.022;6.818;2023-12-28T01:51:09;21.30;60.50
58933;DHT22;44716;51.022;6.818;2023-12-28T01:53:36;21.30;60.50
58933;DHT22;44716;51.022;6.818;2023-12-28T01:56:01;21.20;60.50
58933;DHT22;44716;51.022;6.818;2023-12-28T01:58:28;21.20;60.70
58933;DHT22;44716;51.022;6.818;2023-12-28T02:00:55;21.20;60.70
58933;DHT22;44716;51.022;6.818;2023-12-28T02:03:21;21.30;60.60
58933;DHT22;44716;51.022;6.818;2023-12-28T02:05:46;21.30;60.60
58933;DHT22;44716;51.022;6.818;2023-12-28T02:08:12;21.20;60.50
58933;DHT22;44716;51.022;6.818;2023-12-28T02:10:38;21.20;60.60
58933;DHT22;44716;51.022;6.818;2023-12-28T02:13:04;21.30;61.40
58933;DHT22;44716;51.022;6.818;2023-12-28T02:15:29;21.20;60.60
58933;DHT22;44716;51.022;6.818;2023-12-28T02:17:58;21.20;60.60
58933;DHT22;44716;51.022;6.818;2023-12-28T02:20:24;21.30;60.70
58933;DHT22;44716;51.022;6.818;2023-12-28T02:22:50;21.30;60.50
58933;DHT22;44716;51.022;6.818;2023-12-28T02:25:17;21.20;60.70
58933;DHT22;44716;51.022;6.818;2023-12-28T02:27:44;21.20;60.70
58933;DHT22;44716;51.022;6.818;2023-12-28T02:30:11;21.20;60.70
58933;DHT22;44716;51.022;6.818;2023-12-28T02:35:06;21.20;60.60
58933;DHT22;44716;51.022;6.818;2023-12-28T02:37:35;21.20;60.50
58933;DHT22;44716;51.022;6.818;2023-12-28T02:40:01;21.20;60.60
58933;DHT22;44716;51.022;6.818;2023-12-28T02:42:27;21.20;60.70
58933;DHT22;44716;51.022;6.818;2023-12-28T02:44:52;21.20;60.70
58933;DHT22;44716;51.022;6.818;2023-12-28T02:47:18;21.20;60.60
58933;DHT22;44716;51.022;6.818;2023-12-28T02:49:43;21.20;60.60
58933;DHT22;44716;51.022;6.818;2023-12-28T02:52:09;21.10;60.60
58933;DHT22;44716;51.022;6.818;2023-12-28T02:54:34;21.20;60.70
58933;DHT22;44716;51.022;6.818;2023-12-28T02:57:00;21.10;60.70
58933;DHT22;44716;51.022;6.818;2023-12-28T02:59:25;21.20;60.70
58933;DHT22;44716;51.022;6.818;2023-12-28T03:01:51;21.10;60.60
58933;DHT22;44716;51.022;6.818;2023-12-28T03:04:16;21.10;60.70
58933;DHT22;44716;51.022;6.818;2023-12-28T03:06:42;21.10;61.50
58933;DHT22;44716;51.022;6.818;2023-12-28T03:09:11;21.20;60.70
58933;DHT22;44716;51.022;6.818;2023-12-28T03:11:36;21.20;60.70
58933;DHT22;44716;51.022;6.818;2023-12-28T03:14:02;21.20;60.70
58933;DHT22;44716;51.022;6.818;2023-12-28T03:16:27;21.20;60.60
58933;DHT22;44716;51.022;6.818;2023-12-28T03:18:53;21.20;60.60
58933;DHT22;44716;51.022;6.818;2023-12-28T03:21:19;21.10;60.60
58933;DHT22;44716;51.022;6.818;2023-12-28T03:23:44;21.10;60.50
58933;DHT22;44716;51.022;6.818;2023-12-28T03:26:09;21.10;60.70
58933;DHT22;44716;51.022;6.818;2023-12-28T03:28:35;21.20;60.70
58933;DHT22;44716;51.022;6.818;2023-12-28T03:31:03;21.10;60.70
58933;DHT22;44716;51.022;6.818;2023-12-28T03:33:29;21.10;60.60
58933;DHT22;44716;51.022;6.818;2023-12-28T03:35:54;21.10;60.70
58933;DHT22;44716;51.022;6.818;2023-12-28T03:38:21;21.10;60.80
58933;DHT22;44716;51.022;6.818;2023-12-28T03:40:46;21.00;60.80
58933;DHT22;44716;51.022;6.818;2023-12-28T03:43:13;21.00;60.80
58933;DHT22;44716;51.022;6.818;2023-12-28T03:45:38;21.00;60.80
58933;DHT22;44716;51.022;6.818;2023-12-28T03:48:04;21.00;60.80
58933;DHT22;44716;51.022;6.818;2023-12-28T03:50:29;21.00;60.70
58933;DHT22;44716;51.022;6.818;2023-12-28T03:52:55;21.10;60.80
58933;DHT22;44716;51.022;6.818;2023-12-28T03:55:21;21.00;60.70
58933;DHT22;44716;51.022;6.818;2023-12-28T03:57:46;21.10;60.80
58933;DHT22;44716;51.022;6.818;2023-12-28T04:00:13;21.00;60.80
58933;DHT22;44716;51.022;6.818;2023-12-28T04:02:40;21.00;60.80
58933;DHT22;44716;51.022;6.818;2023-12-28T04:05:05;21.00;60.90
58933;DHT22;44716;51.022;6.818;2023-12-28T04:07:32;21.00;60.90
58933;DHT22;44716;51.022;6.818;2023-12-28T04:09:57;21.00;60.90
58933;DHT22;44716;51.022;6.818;2023-12-28T04:12:23;20.90;60.90
58933;DHT22;44716;51.022;6.818;2023-12-28T04:14:49;21.00;61.00
58933;DHT22;44716;51.022;6.818;2023-12-28T04:17:15;21.00;61.00
58933;DHT22;44716;51.022;6.818;2023-12-28T04:19:40;21.00;61.00
58933;DHT22;44716;51.022;6.818;2023-12-28T04:22:06;21.00;61.00
58933;DHT22;44716;51.022;6.818;2023-12-28T04:24:31;21.00;61.00
58933;DHT22;44716;51.022;6.818;2023-12-28T04:26:57;21.00;61.00
58933;DHT22;44716;51.022;6.818;2023-12-28T04:29:22;21.00;61.00
58933;DHT22;44716;51.022;6.818;2023-12-28T04:31:48;20.90;61.00
58933;DHT22;44716;51.022;6.818;2023-12-28T04:34:13;20.90;61.10
58933;DHT22;44716;51.022;6.818;2023-12-28T04:36:42;20.90;61.00
58933;DHT22;44716;51.022;6.818;2023-12-28T04:39:12;20.90;61.00
58933;DHT22;44716;51.022;6.818;2023-12-28T04:41:37;20.90;61.00
58933;DHT22;44716;51.022;6.818;2023-12-28T04:44:03;20.90;61.20
58933;DHT22;44716;51.022;6.818;2023-12-28T04:46:28;20.90;61.10
58933;DHT22;44716;51.022;6.818;2023-12-28T04:48:54;20.90;61.10
58933;DHT22;44716;51.022;6.818;2023-12-28T04:51:19;20.90;61.10
58933;DHT22;44716;51.022;6.818;2023-12-28T04:53:45;20.90;61.00
58933;DHT22;44716;51.022;6.818;2023-12-28T04:56:10;20.90;61.00
58933;DHT22;44716;51.022;6.818;2023-12-28T04:58:36;20.90;61.20
58933;DHT22;44716;51.022;6.818;2023-12-28T05:01:01;20.90;61.20
58933;DHT22;44716;51.022;6.818;2023-12-28T05:03:28;20.90;61.00
58933;DHT22;44716;51.022;6.818;2023-12-28T05:05:53;20.90;61.00
58933;DHT22;44716;51.022;6.818;2023-12-28T05:08:19;20.90;61.00
58933;DHT22;44716;51.022;6.818;2023-12-28T05:10:44;20.90;61.10
58933;DHT22;44716;51.022;6.818;2023-12-28T05:13:10;20.90;61.10
58933;DHT22;44716;51.022;6.818;2023-12-28T05:15:35;20.90;61.20
58933;DHT22;44716;51.022;6.818;2023-12-28T05:18:01;20.80;61.30
58933;DHT22;44716;51.022;6.818;2023-12-28T05:20:26;20.80;61.40
58933;DHT22;44716;51.022;6.818;2023-12-28T05:22:52;20.80;61.40
58933;DHT22;44716;51.022;6.818;2023-12-28T05:25:17;20.80;61.60
58933;DHT22;44716;51.022;6.818;2023-12-28T05:27:43;20.80;61.50
58933;DHT22;44716;51.022;6.818;2023-12-28T05:30:08;20.80;61.40
58933;DHT22;44716;51.022;6.818;2023-12-28T05:32:35;20.80;61.50
58933;DHT22;44716;51.022;6.818;2023-12-28T05:35:00;20.80;61.60
58933;DHT22;44716;51.022;6.818;2023-12-28T05:37:26;20.70;61.50
58933;DHT22;44716;51.022;6.818;2023-12-28T05:39:51;20.80;62.40
58933;DHT22;44716;51.022;6.818;2023-12-28T05:42:17;20.70;61.50
58933;DHT22;44716;51.022;6.818;2023-12-28T05:44:42;20.80;61.60
58933;DHT22;44716;51.022;6.818;2023-12-28T05:47:08;20.80;61.60
58933;DHT22;44716;51.022;6.818;2023-12-28T05:49:33;20.80;61.40
58933;DHT22;44716;51.022;6.818;2023-12-28T05:51:59;20.90;61.30
58933;DHT22;44716;51.022;6.818;2023-12-28T05:54:24;20.90;61.20
58933;DHT22;44716;51.022;6.818;2023-12-28T05:56:51;20.90;61.30
58933;DHT22;44716;51.022;6.818;2023-12-28T05:59:16;21.00;62.10
58933;DHT22;44716;51.022;6.818;2023-12-28T06:01:43;21.00;61.20
58933;DHT22;44716;51.022;6.818;2023-12-28T06:04:09;21.10;61.20
58933;DHT22;44716;51.022;6.818;2023-12-28T06:06:34;21.00;61.00
58933;DHT22;44716;51.022;6.818;2023-12-28T06:09:01;21.00;61.10
58933;DHT22;44716;51.022;6.818;2023-12-28T06:11:28;21.00;61.20
58933;DHT22;44716;51.022;6.818;2023-12-28T06:13:54;21.00;61.10
58933;DHT22;44716;51.022;6.818;2023-12-28T06:16:19;21.10;61.20
58933;DHT22;44716;51.022;6.818;2023-12-28T06:18:45;21.10;61.20
58933;DHT22;44716;51.022;6.818;2023-12-28T06:21:10;21.00;61.20
58933;DHT22;44716;51.022;6.818;2023-12-28T06:23:36;21.00;61.10
58933;DHT22;44716;51.022;6.818;2023-12-28T06:26:05;21.00;61.30
58933;DHT22;44716;51.022;6.818;2023-12-28T06:28:33;21.00;61.20
58933;DHT22;44716;51.022;6.818;2023-12-28T06:30:59;21.00;61.20
58933;DHT22;44716;51.022;6.818;2023-12-28T06:33:29;21.00;61.20
58933;DHT22;44716;51.022;6.818;2023-12-28T06:35:55;21.00;61.30
58933;DHT22;44716;51.022;6.818;2023-12-28T06:38:23;21.00;61.40
58933;DHT22;44716;51.022;6.818;2023-12-28T06:40:49;21.00;61.40
58933;DHT22;44716;51.022;6.818;2023-12-28T06:43:14;21.00;61.40
58933;DHT22;44716;51.022;6.818;2023-12-28T06:45:40;21.00;61.60
58933;DHT22;44716;51.022;6.818;2023-12-28T06:48:06;21.00;61.50
58933;DHT22;44716;51.022;6.818;2023-12-28T06:50:32;21.00;61.40
58933;DHT22;44716;51.022;6.818;2023-12-28T06:52:57;21.00;61.40
58933;DHT22;44716;51.022;6.818;2023-12-28T06:55:23;20.90;61.50
58933;DHT22;44716;51.022;6.818;2023-12-28T06:57:48;20.90;61.50
58933;DHT22;44716;51.022;6.818;2023-12-28T07:00:14;20.90;61.70
58933;DHT22;44716;51.022;6.818;2023-12-28T07:02:39;20.90;61.70
58933;DHT22;44716;51.022;6.818;2023-12-28T07:05:05;20.90;61.60
58933;DHT22;44716;51.022;6.818;2023-12-28T07:07:30;20.90;61.70
58933;DHT22;44716;51.022;6.818;2023-12-28T07:09:56;20.90;61.70
58933;DHT22;44716;51.022;6.818;2023-12-28T07:12:23;20.90;61.70
58933;DHT22;44716;51.022;6.818;2023-12-28T07:14:49;20.90;61.90
58933;DHT22;44716;51.022;6.818;2023-12-28T07:17:14;20.90;61.80
58933;DHT22;44716;51.022;6.818;2023-12-28T07:19:43;21.00;61.80
58933;DHT22;44716;51.022;6.818;2023-12-28T07:22:08;21.00;61.70
58933;DHT22;44716;51.022;6.818;2023-12-28T07:24:34;21.00;61.80
58933;DHT22;44716;51.022;6.818;2023-12-28T07:26:59;21.00;62.20
58933;DHT22;44716;51.022;6.818;2023-12-28T07:29:25;21.00;62.00
58933;DHT22;44716;51.022;6.818;2023-12-28T07:31:50;21.00;62.00
58933;DHT22;44716;51.022;6.818;2023-12-28T07:34:16;21.00;61.90
58933;DHT22;44716;51.022;6.818;2023-12-28T07:36:41;20.90;61.80
58933;DHT22;44716;51.022;6.818;2023-12-28T07:39:09;20.90;62.00
58933;DHT22;44716;51.022;6.818;2023-12-28T07:41:34;20.90;61.90
58933;DHT22;44716;51.022;6.818;2023-12-28T07:44:00;20.90;61.90
58933;DHT22;44716;51.022;6.818;2023-12-28T07:46:25;20.90;62.00
58933;DHT22;44716;51.022;6.818;2023-12-28T07:48:51;20.80;62.00
58933;DHT22;44716;51.022;6.818;2023-12-28T07:51:16;20.80;62.10
58933;DHT22;44716;51.022;6.818;2023-12-28T07:53:42;20.80;62.10
58933;DHT22;44716;51.022;6.818;2023-12-28T07:56:07;20.80;62.00
58933;DHT22;44716;51.022;6.818;2023-12-28T07:58:33;20.80;62.10
58933;DHT22;44716;51.022;6.818;2023-12-28T08:00:58;20.80;62.10
58933;DHT22;44716;51.022;6.818;2023-12-28T08:03:24;20.80;62.10
58933;DHT22;44716;51.022;6.818;2023-12-28T08:05:49;20.80;62.10
58933;DHT22;44716;51.022;6.818;2023-12-28T08:08:15;20.70;62.10
58933;DHT22;44716;51.022;6.818;2023-12-28T08:10:40;20.80;62.20
58933;DHT22;44716;51.022;6.818;2023-12-28T08:13:06;20.70;62.20
58933;DHT22;44716;51.022;6.818;2023-12-28T08:15:31;20.70;62.30
58933;DHT22;44716;51.022;6.818;2023-12-28T08:17:57;20.70;62.30
58933;DHT22;44716;51.022;6.818;2023-12-28T08:20:22;20.70;62.30
58933;DHT22;44716;51.022;6.818;2023-12-28T08:22:48;20.70;62.30
58933;DHT22;44716;51.022;6.818;2023-12-28T08:25:13;20.70;62.30
58933;DHT22;44716;51.022;6.818;2023-12-28T08:27:40;20.70;62.30
58933;DHT22;44716;51.022;6.818;2023-12-28T08:30:06;20.70;62.30
58933;DHT22;44716;51.022;6.818;2023-12-28T08:32:32;20.60;62.30
58933;DHT22;44716;51.022;6.818;2023-12-28T08:34:57;20.60;62.30
58933;DHT22;44716;51.022;6.818;2023-12-28T08:37:23;20.60;62.30
58933;DHT22;44716;51.022;6.818;2023-12-28T08:39:48;20.60;62.30
58933;DHT22;44716;51.022;6.818;2023-12-28T08:42:14;20.60;62.30
58933;DHT22;44716;51.022;6.818;2023-12-28T08:44:39;20.60;62.30
58933;DHT22;44716;51.022;6.818;2023-12-28T08:47:05;20.60;62.40
58933;DHT22;44716;51.022;6.818;2023-12-28T08:49:30;20.60;62.40
58933;DHT22;44716;51.022;6.818;2023-12-28T08:51:58;20.60;62.30
58933;DHT22;44716;51.022;6.818;2023-12-28T08:54:23;20.60;62.30
58933;DHT22;44716;51.022;6.818;2023-12-28T08:56:49;20.60;62.30
58933;DHT22;44716;51.022;6.818;2023-12-28T08:59:15;20.60;62.30
58933;DHT22;44716;51.022;6.818;2023-12-28T09:01:40;20.60;62.50
58933;DHT22;44716;51.022;6.818;2023-12-28T09:04:06;20.60;62.40
58933;DHT22;44716;51.022;6.818;2023-12-28T09:06:31;20.60;62.40
58933;DHT22;44716;51.022;6.818;2023-12-28T09:08:57;20.60;62.40
58933;DHT22;44716;51.022;6.818;2023-12-28T09:11:23;20.60;62.40
58933;DHT22;44716;51.022;6.818;2023-12-28T09:13:48;20.60;62.40
58933;DHT22;44716;51.022;6.818;2023-12-28T09:16:14;20.50;62.40
58933;DHT22;44716;51.022;6.818;2023-12-28T09:18:40;20.50;62.30
58933;DHT22;44716;51.022;6.818;2023-12-28T09:21:06;20.50;62.40
58933;DHT22;44716;51.022;6.818;2023-12-28T09:23:32;20.50;62.30
58933;DHT22;44716;51.022;6.818;2023-12-28T09:25:58;20.50;62.50
58933;DHT22;44716;51.022;6.818;2023-12-28T09:28:24;20.50;62.40
58933;DHT22;44716;51.022;6.818;2023-12-28T09:30:49;20.50;62.40
58933;DHT22;44716;51.022;6.818;2023-12-28T09:33:15;20.50;62.30
58933;DHT22;44716;51.022;6.818;2023-12-28T09:35:41;20.50;62.30
58933;DHT22;44716;51.022;6.818;2023-12-28T09:38:07;20.50;62.40
58933;DHT22;44716;51.022;6.818;2023-12-28T09:40:32;20.50;62.40
58933;DHT22;44716;51.022;6.818;2023-12-28T09:43:03;20.50;62.30
58933;DHT22;44716;51.022;6.818;2023-12-28T09:45:33;20.50;62.40
58933;DHT22;44716;51.022;6.818;2023-12-28T09:47:58;20.50;62.30
58933;DHT22;44716;51.022;6.818;2023-12-28T09:50:24;20.50;62.20
58933;DHT22;44716;51.022;6.818;2023-12-28T09:52:52;20.50;62.30
58933;DHT22;44716;51.022;6.818;2023-12-28T09:55:18;20.50;62.40
58933;DHT22;44716;51.022;6.818;2023-12-28T09:57:44;20.50;62.30
58933;DHT22;44716;51.022;6.818;2023-12-28T10:00:10;20.50;62.30
58933;DHT22;44716;51.022;6.818;2023-12-28T10:02:37;20.50;62.30
58933;DHT22;44716;51.022;6.818;2023-12-28T10:05:04;20.50;62.20
58933;DHT22;44716;51.022;6.818;2023-12-28T10:07:31;20.50;62.20
58933;DHT22;44716;51.022;6.818;2023-12-28T10:09:56;20.50;62.20
58933;DHT22;44716;51.022;6.818;2023-12-28T10:12:22;20.50;62.20
58933;DHT22;44716;51.022;6.818;2023-12-28T10:14:49;20.50;62.30
58933;DHT22;44716;51.022;6.818;2023-12-28T10:17:15;20.50;62.20
58933;DHT22;44716;51.022;6.818;2023-12-28T10:19:40;20.50;62.20
58933;DHT22;44716;51.022;6.818;2023-12-28T10:22:06;20.50;62.20
58933;DHT22;44716;51.022;6.818;2023-12-28T10:24:32;20.50;62.20
58933;DHT22;44716;51.022;6.818;2023-12-28T10:26:58;20.50;63.00
58933;DHT22;44716;51.022;6.818;2023-12-28T10:29:26;20.50;62.20
58933;DHT22;44716;51.022;6.818;2023-12-28T10:31:53;20.50;62.10
58933;DHT22;44716;51.022;6.818;2023-12-28T10:34:18;20.50;62.20
58933;DHT22;44716;51.022;6.818;2023-12-28T10:36:44;20.50;62.20
58933;DHT22;44716;51.022;6.818;2023-12-28T10:39:11;20.50;62.30
58933;DHT22;44716;51.022;6.818;2023-12-28T10:41:38;20.50;62.20
58933;DHT22;44716;51.022;6.818;2023-12-28T10:44:06;20.50;62.20
58933;DHT22;44716;51.022;6.818;2023-12-28T10:46:33;20.50;62.20
58933;DHT22;44716;51.022;6.818;2023-12-28T10:49:10;20.50;62.10
58933;DHT22;44716;51.022;6.818;2023-12-28T10:51:37;20.50;62.20
58933;DHT22;44716;51.022;6.818;2023-12-28T10:56:39;20.50;62.10
58933;DHT22;44716;51.022;6.818;2023-12-28T11:01:35;20.50;62.10
58933;DHT22;44716;51.022;6.818;2023-12-28T11:04:06;20.50;62.10
58933;DHT22;44716;51.022;6.818;2023-12-28T11:06:33;20.50;62.10
58933;DHT22;44716;51.022;6.818;2023-12-28T11:09:00;20.50;62.90
58933;DHT22;44716;51.022;6.818;2023-12-28T11:11:26;20.50;62.00
58933;DHT22;44716;51.022;6.818;2023-12-28T11:13:52;20.50;62.00
58933;DHT22;44716;51.022;6.818;2023-12-28T11:16:19;20.50;62.00
58933;DHT22;44716;51.022;6.818;2023-12-28T11:18:45;20.50;62.00
58933;DHT22;44716;51.022;6.818;2023-12-28T11:21:11;20.50;61.90
58933;DHT22;44716;51.022;6.818;2023-12-28T11:23:36;20.50;61.90
58933;DHT22;44716;51.022;6.818;2023-12-28T11:26:02;20.50;61.90
58933;DHT22;44716;51.022;6.818;2023-12-28T11:28:28;20.50;61.90
58933;DHT22;44716;51.022;6.818;2023-12-28T11:30:54;20.50;61.90
58933;DHT22;44716;51.022;6.818;2023-12-28T11:33:19;20.50;61.90
58933;DHT22;44716;51.022;6.818;2023-12-28T11:35:47;20.50;61.90
58933;DHT22;44716;51.022;6.818;2023-12-28T11:38:12;20.50;61.90
58933;DHT22;44716;51.022;6.818;2023-12-28T11:40:41;20.50;61.90
58933;DHT22;44716;51.022;6.818;2023-12-28T11:43:14;20.50;61.90
58933;DHT22;44716;51.022;6.818;2023-12-28T11:45:46;20.50;61.90
58933;DHT22;44716;51.022;6.818;2023-12-28T11:48:21;20.50;61.90
58933;DHT22;44716;51.022;6.818;2023-12-28T11:50:47;20.50;61.90
58933;DHT22;44716;51.022;6.818;2023-12-28T11:53:12;20.50;61.90
58933;DHT22;44716;51.022;6.818;2023-12-28T11:55:38;20.50;61.80
58933;DHT22;44716;51.022;6.818;2023-12-28T11:58:04;20.50;61.70
58933;DHT22;44716;51.022;6.818;2023-12-28T12:00:29;20.50;61.70
58933;DHT22;44716;51.022;6.818;2023-12-28T12:02:55;20.50;61.70
58933;DHT22;44716;51.022;6.818;2023-12-28T12:05:21;20.50;61.70
58933;DHT22;44716;51.022;6.818;2023-12-28T12:07:48;20.50;61.70
58933;DHT22;44716;51.022;6.818;2023-12-28T12:10:14;20.50;61.70
58933;DHT22;44716;51.022;6.818;2023-12-28T12:12:40;20.50;61.70
58933;DHT22;44716;51.022;6.818;2023-12-28T12:15:05;20.50;61.60
58933;DHT22;44716;51.022;6.818;2023-12-28T12:17:31;20.50;61.60
58933;DHT22;44716;51.022;6.818;2023-12-28T12:19:57;20.50;61.60
58933;DHT22;44716;51.022;6.818;2023-12-28T12:22:23;20.50;61.60
58933;DHT22;44716;51.022;6.818;2023-12-28T12:24:48;20.50;61.60
58933;DHT22;44716;51.022;6.818;2023-12-28T12:27:14;20.50;61.60
58933;DHT22;44716;51.022;6.818;2023-12-28T12:29:39;20.50;61.60
58933;DHT22;44716;51.022;6.818;2023-12-28T12:32:05;20.50;61.60
58933;DHT22;44716;51.022;6.818;2023-12-28T12:34:32;20.50;61.60
58933;DHT22;44716;51.022;6.818;2023-12-28T12:36:57;20.50;61.60
58933;DHT22;44716;51.022;6.818;2023-12-28T12:39:24;20.50;61.60
58933;DHT22;44716;51.022;6.818;2023-12-28T12:41:49;20.50;61.60
58933;DHT22;44716;51.022;6.818;2023-12-28T12:44:15;20.50;61.60
58933;DHT22;44716;51.022;6.818;2023-12-28T12:46:42;20.50;61.60
58933;DHT22;44716;51.022;6.818;2023-12-28T12:49:07;20.50;61.40
58933;DHT22;44716;51.022;6.818;2023-12-28T12:51:33;20.50;61.50
58933;DHT22;44716;51.022;6.818;2023-12-28T12:53:59;20.50;61.50
58933;DHT22;44716;51.022;6.818;2023-12-28T12:56:27;20.50;61.50
58933;DHT22;44716;51.022;6.818;2023-12-28T12:58:53;20.50;61.50
58933;DHT22;44716;51.022;6.818;2023-12-28T13:01:19;20.50;61.50
58933;DHT22;44716;51.022;6.818;2023-12-28T13:03:45;20.50;61.50
58933;DHT22;44716;51.022;6.818;2023-12-28T13:06:11;20.50;61.50
58933;DHT22;44716;51.022;6.818;2023-12-28T13:08:36;20.50;61.60
58933;DHT22;44716;51.022;6.818;2023-12-28T13:11:02;20.50;61.50
58933;DHT22;44716;51.022;6.818;2023-12-28T13:13:28;20.50;61.40
58933;DHT22;44716;51.022;6.818;2023-12-28T13:15:53;20.50;61.50
58933;DHT22;44716;51.022;6.818;2023-12-28T13:18:19;20.50;61.50
58933;DHT22;44716;51.022;6.818;2023-12-28T13:20:44;20.50;61.50
58933;DHT22;44716;51.022;6.818;2023-12-28T13:23:11;20.50;61.50
58933;DHT22;44716;51.022;6.818;2023-12-28T13:25:37;20.50;61.60
58933;DHT22;44716;51.022;6.818;2023-12-28T13:28:02;20.50;61.40
58933;DHT22;44716;51.022;6.818;2023-12-28T13:30:28;20.50;61.50
58933;DHT22;44716;51.022;6.818;2023-12-28T13:32:54;20.50;61.50
58933;DHT22;44716;51.022;6.818;2023-12-28T13:35:22;20.50;61.50
58933;DHT22;44716;51.022;6.818;2023-12-28T13:37:47;20.50;61.50
58933;DHT22;44716;51.022;6.818;2023-12-28T13:40:13;20.50;61.50
58933;DHT22;44716;51.022;6.818;2023-12-28T13:42:38;20.50;61.50
58933;DHT22;44716;51.022;6.818;2023-12-28T13:45:04;20.50;61.50
58933;DHT22;44716;51.022;6.818;2023-12-28T13:47:30;20.40;61.50
58933;DHT22;44716;51.022;6.818;2023-12-28T13:49:55;20.50;61.60
58933;DHT22;44716;51.022;6.818;2023-12-28T13:52:21;20.50;61.50
58933;DHT22;44716;51.022;6.818;2023-12-28T13:54:46;20.40;61.50
58933;DHT22;44716;51.022;6.818;2023-12-28T13:57:12;20.50;61.50
58933;DHT22;44716;51.022;6.818;2023-12-28T13:59:37;20.40;61.50
58933;DHT22;44716;51.022;6.818;2023-12-28T14:02:03;20.40;61.50
58933;DHT22;44716;51.022;6.818;2023-12-28T14:04:28;20.40;61.60
58933;DHT22;44716;51.022;6.818;2023-12-28T14:06:54;20.40;61.60
58933;DHT22;44716;51.022;6.818;2023-12-28T14:09:19;20.40;61.60
58933;DHT22;44716;51.022;6.818;2023-12-28T14:11:46;20.40;61.60
58933;DHT22;44716;51.022;6.818;2023-12-28T14:14:12;20.40;61.70
58933;DHT22;44716;51.022;6.818;2023-12-28T14:16:38;20.40;61.60
58933;DHT22;44716;51.022;6.818;2023-12-28T14:19:04;20.40;61.60
58933;DHT22;44716;51.022;6.818;2023-12-28T14:21:33;20.40;61.60
58933;DHT22;44716;51.022;6.818;2023-12-28T14:23:59;20.40;61.60
58933;DHT22;44716;51.022;6.818;2023-12-28T14:26:25;20.40;61.60
58933;DHT22;44716;51.022;6.818;2023-12-28T14:28:50;20.40;61.60
58933;DHT22;44716;51.022;6.818;2023-12-28T14:31:16;20.40;61.60
58933;DHT22;44716;51.022;6.818;2023-12-28T14:33:42;20.40;61.60
58933;DHT22;44716;51.022;6.818;2023-12-28T14:36:10;20.40;61.60
58933;DHT22;44716;51.022;6.818;2023-12-28T14:38:39;20.40;61.60
58933;DHT22;44716;51.022;6.818;2023-12-28T14:41:05;20.40;61.60
58933;DHT22;44716;51.022;6.818;2023-12-28T14:43:30;20.30;61.60
58933;DHT22;44716;51.022;6.818;2023-12-28T14:45:56;20.30;61.70
58933;DHT22;44716;51.022;6.818;2023-12-28T14:48:21;20.40;61.70
58933;DHT22;44716;51.022;6.818;2023-12-28T14:50:47;20.30;61.60
58933;DHT22;44716;51.022;6.818;2023-12-28T14:53:12;20.30;61.60
58933;DHT22;44716;51.022;6.818;2023-12-28T14:55:38;20.40;61.70
58933;DHT22;44716;51.022;6.818;2023-12-28T14:58:03;20.30;61.70
58933;DHT22;44716;51.022;6.818;2023-12-28T15:00:29;20.40;61.70
58933;DHT22;44716;51.022;6.818;2023-12-28T15:02:55;20.30;61.70
58933;DHT22;44716;51.022;6.818;2023-12-28T15:05:21;20.30;61.60
58933;DHT22;44716;51.022;6.818;2023-12-28T15:07:46;20.30;61.70
58933;DHT22;44716;51.022;6.818;2023-12-28T15:10:13;20.30;61.60
58933;DHT22;44716;51.022;6.818;2023-12-28T15:12:39;20.40;61.70
58933;DHT22;44716;51.022;6.818;2023-12-28T15:15:05;20.30;61.70
58933;DHT22;44716;51.022;6.818;2023-12-28T15:17:31;20.30;61.70
58933;DHT22;44716;51.022;6.818;2023-12-28T15:19:57;20.30;61.70
58933;DHT22;44716;51.022;6.818;2023-12-28T15:22:22;20.30;61.70
58933;DHT22;44716;51.022;6.818;2023-12-28T15:24:48;20.30;61.80
58933;DHT22;44716;51.022;6.818;2023-12-28T15:27:14;20.30;61.90
58933;DHT22;44716;51.022;6.818;2023-12-28T15:29:39;20.30;61.80